Time;durP1;ratioP1;P1;durP2;ratioP2;P2;SDS_P1;SDS_P2;PMS_P1;PMS_P2;Temp;Humidity;BMP_temperature;BMP_pressure;BME280_temperature;BME280_humidity;BME280_pressure;Samples;Min_cycle;Max_cycle;Signal;HPM_P1;HPM_P2
2021/12/22 00:02:00;;;;;;;64.43;38.50;;;;;;;-4.64;100.00;102441.09;5074671;28;20028;-65
2021/12/22 00:04:25;;;;;;;62.13;37.95;;;;;;;-4.73;100.00;102443.72;5074594;28;20471;-66
2021/12/22 00:06:52;;;;;;;58.40;35.67;;;;;;;-4.73;100.00;102446.31;5074814;28;20021;-65
2021/12/22 00:09:17;;;;;;;59.78;36.03;;;;;;;-4.82;100.00;102442.88;5074773;28;20498;-66
2021/12/22 00:11:43;;;;;;;63.08;37.15;;;;;;;-4.81;100.00;102445.59;5074384;28;20037;-64
2021/12/22 00:14:10;;;;;;;61.00;37.22;;;;;;;-4.73;100.00;102448.88;5073452;28;20048;-66
2021/12/22 00:16:35;;;;;;;61.92;37.20;;;;;;;-4.78;100.00;102444.97;5074505;28;20081;-67
2021/12/22 00:19:00;;;;;;;63.03;37.50;;;;;;;-4.80;100.00;102443.94;5074609;28;20028;-65
2021/12/22 00:21:26;;;;;;;60.65;36.95;;;;;;;-4.71;100.00;102447.34;5073882;28;20535;-65
2021/12/22 00:23:51;;;;;;;62.60;36.97;;;;;;;-4.77;100.00;102446.78;5074334;28;20498;-65
2021/12/22 00:26:17;;;;;;;61.15;38.33;;;;;;;-4.78;100.00;102443.28;5074253;28;20100;-65
2021/12/22 00:28:44;;;;;;;63.45;39.20;;;;;;;-4.83;100.00;102446.22;5072699;28;20037;-66
2021/12/22 00:31:12;;;;;;;62.47;37.50;;;;;;;-4.83;100.00;102436.81;5074397;28;20046;-65
2021/12/22 00:33:46;;;;;;;63.20;37.97;;;;;;;-4.80;100.00;102433.59;5073909;28;20029;-66
2021/12/22 00:36:12;;;;;;;63.20;37.80;;;;;;;-4.80;100.00;102438.78;5070285;28;20082;-65
2021/12/22 00:38:37;;;;;;;71.35;40.83;;;;;;;-4.81;100.00;102443.00;5074140;28;20046;-65
2021/12/22 00:41:04;;;;;;;76.78;42.90;;;;;;;-4.89;100.00;102441.41;5073970;28;20028;-66
2021/12/22 00:43:30;;;;;;;70.53;41.92;;;;;;;-4.91;100.00;102448.09;5074152;28;20418;-66
2021/12/22 00:45:56;;;;;;;64.18;39.05;;;;;;;-5.01;100.00;102446.34;5074065;28;20036;-66
2021/12/22 00:48:22;;;;;;;63.17;38.95;;;;;;;-5.07;100.00;102450.91;5073962;28;20048;-65
2021/12/22 00:50:48;;;;;;;62.75;37.38;;;;;;;-5.13;100.00;102452.94;5073652;28;20029;-66
2021/12/22 00:53:13;;;;;;;68.30;39.25;;;;;;;-5.15;100.00;102444.16;5073855;28;20035;-65
2021/12/22 00:55:39;;;;;;;70.10;39.75;;;;;;;-5.17;100.00;102448.25;5069480;28;20024;-65
2021/12/22 00:58:05;;;;;;;69.50;41.97;;;;;;;-5.17;100.00;102445.66;5073677;28;20051;-65
2021/12/22 01:00:30;;;;;;;82.63;45.30;;;;;;;-5.11;100.00;102449.75;5073501;28;20100;-66
2021/12/22 01:02:56;;;;;;;68.55;41.58;;;;;;;-5.16;100.00;102442.34;5073357;28;20044;-65
2021/12/22 01:05:22;;;;;;;68.55;40.75;;;;;;;-5.24;100.00;102449.38;5073833;28;20460;-65
2021/12/22 01:07:50;;;;;;;70.20;41.28;;;;;;;-5.30;100.00;102443.59;5073603;28;20481;-67
2021/12/22 01:10:24;;;;;;;68.97;40.88;;;;;;;-5.31;100.00;102445.28;5073164;28;20045;-65
2021/12/22 01:12:52;;;;;;;69.30;41.65;;;;;;;-5.27;100.00;102443.91;5073589;28;20364;-65
2021/12/22 01:15:18;;;;;;;69.97;42.05;;;;;;;-5.25;100.00;102457.84;5073377;28;20419;-68
2021/12/22 01:17:48;;;;;;;68.70;40.90;;;;;;;-5.25;100.00;102443.28;5073250;28;20046;-66
2021/12/22 01:20:29;;;;;;;66.97;39.78;;;;;;;-5.31;100.00;102447.88;5073275;28;20040;-65
2021/12/22 01:23:02;;;;;;;74.05;43.75;;;;;;;-5.29;100.00;102436.00;5071433;28;20029;-65
2021/12/22 01:25:29;;;;;;;73.82;44.97;;;;;;;-5.21;100.00;102438.41;5073182;28;20029;-67
2021/12/22 01:27:54;;;;;;;75.57;43.88;;;;;;;-5.27;100.00;102428.44;5073425;28;20112;-65
2021/12/22 01:30:26;;;;;;;80.38;44.67;;;;;;;-5.21;100.00;102428.09;5072942;28;20080;-67
2021/12/22 01:32:54;;;;;;;77.90;44.17;;;;;;;-5.33;100.00;102435.59;5072716;28;20086;-65
2021/12/22 01:35:22;;;;;;;77.10;44.42;;;;;;;-5.29;100.00;102433.44;5072903;28;20086;-66
2021/12/22 01:37:48;;;;;;;77.25;44.40;;;;;;;-5.28;100.00;102426.63;5072990;28;20111;-66
2021/12/22 01:40:14;;;;;;;75.45;44.55;;;;;;;-5.32;100.00;102433.16;5073019;28;20057;-66
2021/12/22 01:42:40;;;;;;;79.05;45.22;;;;;;;-5.27;100.00;102439.66;5072940;28;20473;-66
2021/12/22 01:45:26;;;;;;;76.88;45.63;;;;;;;-5.21;100.00;102434.19;5072768;28;20029;-66
2021/12/22 01:50:38;;;;;;;77.13;46.22;;;;;;;-5.27;100.00;102421.63;5072925;28;20036;-66
2021/12/22 01:53:21;;;;;;;79.47;45.50;;;;;;;-5.26;100.00;102428.59;5072791;28;20039;-66
2021/12/22 01:56:22;;;;;;;82.10;45.25;;;;;;;-5.25;100.00;102422.66;5069722;28;20034;-66
2021/12/22 01:58:51;;;;;;;76.40;44.60;;;;;;;-5.23;100.00;102424.47;5059085;28;20120;-67
2021/12/22 02:01:17;;;;;;;80.25;44.88;;;;;;;-5.29;100.00;102419.66;5062181;28;20024;-67
2021/12/22 02:03:44;;;;;;;79.28;46.42;;;;;;;-5.35;100.00;102414.81;5058497;28;20553;-66
2021/12/22 02:06:11;;;;;;;78.10;43.67;;;;;;;-5.33;100.00;102431.38;5058662;28;20056;-65
2021/12/22 02:08:37;;;;;;;79.85;43.17;;;;;;;-5.29;100.00;102437.69;5061868;28;20043;-67
2021/12/22 02:11:04;;;;;;;82.72;44.65;;;;;;;-5.27;100.00;102439.66;5059319;28;20045;-65
2021/12/22 02:13:34;;;;;;;84.32;45.35;;;;;;;-5.30;100.00;102448.75;5060731;28;20130;-66
2021/12/22 02:16:07;;;;;;;81.28;45.53;;;;;;;-5.27;100.00;102447.41;5060048;28;20037;-66
2021/12/22 02:18:38;;;;;;;76.80;45.03;;;;;;;-5.26;100.00;102451.81;5061058;28;20523;-67
2021/12/22 02:21:04;;;;;;;79.32;44.00;;;;;;;-5.21;100.00;102451.28;5059328;28;20051;-66
2021/12/22 02:23:30;;;;;;;77.70;45.53;;;;;;;-5.22;100.00;102447.81;5060530;28;20025;-65
2021/12/22 02:26:01;;;;;;;78.10;45.10;;;;;;;-5.19;100.00;102436.91;5060533;28;20075;-65
2021/12/22 02:28:31;;;;;;;83.53;47.30;;;;;;;-5.14;100.00;102433.97;5060049;28;20147;-66
2021/12/22 02:30:56;;;;;;;82.00;46.55;;;;;;;-5.13;100.00;102438.34;5060262;28;20086;-67
2021/12/22 02:33:33;;;;;;;85.97;47.92;;;;;;;-5.13;100.00;102442.63;5059532;28;20061;-70
2021/12/22 02:38:35;;;;;;;82.22;48.00;;;;;;;-5.10;100.00;102440.31;5072568;28;20044;-71
2021/12/22 02:41:01;;;;;;;83.68;47.13;;;;;;;-5.09;100.00;102437.88;5072123;28;20027;-71
2021/12/22 02:43:31;;;;;;;86.63;47.78;;;;;;;-5.12;100.00;102444.44;5072810;28;20047;-71
2021/12/22 02:45:57;;;;;;;87.90;46.13;;;;;;;-5.14;100.00;102439.13;5076144;28;20475;-71
2021/12/22 02:48:26;;;;;;;75.45;44.35;;;;;;;-5.17;100.00;102435.34;5076102;28;20032;-70
2021/12/22 02:50:54;;;;;;;81.43;44.67;;;;;;;-5.16;100.00;102435.50;5076320;28;20462;-71
2021/12/22 02:53:21;;;;;;;83.32;46.28;;;;;;;-5.14;100.00;102433.06;5076172;28;20024;-71
2021/12/22 02:55:50;;;;;;;80.80;45.67;;;;;;;-5.16;100.00;102432.03;5075939;28;20029;-71
2021/12/22 03:01:05;;;;;;;82.72;45.67;;;;;;;-5.08;100.00;102419.06;5076041;28;20032;-71
2021/12/22 03:06:26;;;;;;;75.38;43.80;;;;;;;-5.15;100.00;102418.38;5076258;28;20043;-71
2021/12/22 03:08:51;;;;;;;79.45;43.95;;;;;;;-5.19;100.00;102434.31;5075959;28;20430;-71
2021/12/22 03:11:17;;;;;;;74.82;42.88;;;;;;;-5.18;100.00;102429.28;5075503;28;20122;-71
2021/12/22 03:13:42;;;;;;;75.68;43.22;;;;;;;-5.19;100.00;102431.72;5075754;28;20468;-66
2021/12/22 03:16:07;;;;;;;71.97;42.40;;;;;;;-5.33;100.00;102444.25;5075830;28;20059;-66
2021/12/22 03:18:34;;;;;;;70.57;42.55;;;;;;;-5.40;100.00;102440.94;5075621;28;20095;-66
2021/12/22 03:21:02;;;;;;;72.03;41.13;;;;;;;-5.47;100.00;102444.63;5075548;28;20027;-66
2021/12/22 03:23:27;;;;;;;67.25;41.40;;;;;;;-5.48;100.00;102448.84;5073987;28;20070;-66
2021/12/22 03:25:53;;;;;;;70.03;41.10;;;;;;;-5.45;100.00;102448.25;5075206;28;20029;-67
2021/12/22 03:28:18;;;;;;;66.00;39.92;;;;;;;-5.46;100.00;102456.72;5075516;28;20027;-66
2021/12/22 03:30:44;;;;;;;68.70;40.35;;;;;;;-5.48;100.00;102451.41;5075411;28;20025;-65
2021/12/22 03:33:09;;;;;;;65.68;40.17;;;;;;;-5.46;100.00;102456.72;5075264;28;20028;-66
2021/12/22 03:35:37;;;;;;;68.47;40.67;;;;;;;-5.45;100.00;102456.88;5075365;28;20375;-66
2021/12/22 03:38:03;;;;;;;68.05;40.45;;;;;;;-5.36;100.00;102455.94;5075588;28;20027;-67
2021/12/22 03:40:28;;;;;;;66.32;38.92;;;;;;;-5.39;100.00;102458.22;5075086;28;20111;-67
2021/12/22 03:42:54;;;;;;;67.57;41.15;;;;;;;-5.39;100.00;102451.38;5075304;28;20535;-66
2021/12/22 03:45:19;;;;;;;70.30;40.30;;;;;;;-5.52;100.00;102448.41;5075140;28;20028;-66
2021/12/22 03:47:46;;;;;;;70.18;41.40;;;;;;;-5.54;100.00;102449.94;5074974;28;20052;-66
2021/12/22 03:50:15;;;;;;;72.97;43.30;;;;;;;-5.51;100.00;102445.09;5069790;28;20034;-67
2021/12/22 03:52:41;;;;;;;72.80;42.45;;;;;;;-5.50;100.00;102437.50;5074956;28;20069;-67
2021/12/22 03:55:07;;;;;;;73.75;41.75;;;;;;;-5.52;100.00;102426.16;5073982;28;20036;-66
2021/12/22 03:57:32;;;;;;;71.05;41.72;;;;;;;-5.53;100.00;102437.22;5075263;28;20031;-66
2021/12/22 03:59:59;;;;;;;68.03;39.60;;;;;;;-5.62;100.00;102442.41;5074823;28;20028;-74
2021/12/22 04:02:26;;;;;;;64.45;39.42;;;;;;;-5.64;100.00;102441.31;5074705;28;20460;-71
2021/12/22 04:04:52;;;;;;;65.47;39.53;;;;;;;-5.70;100.00;102445.00;5074759;28;20111;-70
2021/12/22 04:07:18;;;;;;;65.32;39.28;;;;;;;-5.73;100.00;102440.47;5073286;28;20174;-70
2021/12/22 04:09:45;;;;;;;65.30;39.05;;;;;;;-5.71;100.00;102446.66;5074528;28;20063;-70
2021/12/22 04:12:10;;;;;;;67.00;39.53;;;;;;;-5.70;100.00;102435.59;5074568;28;20055;-71
2021/12/22 04:14:36;;;;;;;67.22;40.42;;;;;;;-5.68;100.00;102439.25;5074416;28;20151;-70
2021/12/22 04:17:02;;;;;;;66.00;38.88;;;;;;;-5.71;100.00;102436.34;5073172;28;20055;-70
2021/12/22 04:19:27;;;;;;;65.22;38.40;;;;;;;-5.74;100.00;102425.75;5074546;28;20020;-70
2021/12/22 04:21:53;;;;;;;68.00;39.03;;;;;;;-5.69;100.00;102437.44;5074230;28;20107;-70
2021/12/22 04:24:19;;;;;;;68.03;38.97;;;;;;;-5.66;100.00;102437.72;5074571;28;20136;-70
2021/12/22 04:26:45;;;;;;;62.95;38.53;;;;;;;-5.66;100.00;102434.25;5074226;28;20385;-71
2021/12/22 04:29:11;;;;;;;66.25;39.10;;;;;;;-5.57;100.00;102423.91;5074290;28;20024;-71
2021/12/22 04:31:37;;;;;;;64.65;39.13;;;;;;;-5.51;100.00;102424.47;5074256;28;20047;-71
2021/12/22 04:34:07;;;;;;;65.43;38.67;;;;;;;-5.52;100.00;102420.06;5074188;28;20032;-70
2021/12/22 04:36:33;;;;;;;63.17;37.45;;;;;;;-5.60;100.00;102420.25;5074378;28;20115;-70
2021/12/22 04:38:59;;;;;;;61.75;37.08;;;;;;;-5.59;100.00;102418.59;5074066;28;20103;-67
2021/12/22 04:41:25;;;;;;;62.72;37.60;;;;;;;-5.61;100.00;102421.03;5074285;28;20173;-66
2021/12/22 04:43:51;;;;;;;62.42;37.20;;;;;;;-5.62;100.00;102419.22;5073854;28;20511;-67
2021/12/22 04:46:16;;;;;;;59.72;36.40;;;;;;;-5.48;100.00;102409.28;5074105;28;20028;-67
2021/12/22 04:48:41;;;;;;;60.55;36.97;;;;;;;-5.47;100.00;102416.25;5069671;28;20357;-68
2021/12/22 04:51:13;;;;;;;59.85;37.10;;;;;;;-5.45;100.00;102415.63;5073783;28;20025;-68
2021/12/22 04:53:50;;;;;;;61.38;36.75;;;;;;;-5.47;100.00;102411.09;5073921;28;20035;-66
2021/12/22 04:56:16;;;;;;;62.15;36.53;;;;;;;-5.44;100.00;102416.56;5074184;28;20440;-67
2021/12/22 04:58:41;;;;;;;59.70;36.28;;;;;;;-5.47;100.00;102414.59;5073999;28;20132;-66
2021/12/22 05:01:06;;;;;;;55.55;35.13;;;;;;;-5.31;100.00;102416.94;5073655;28;20039;-67
2021/12/22 05:03:32;;;;;;;58.45;35.50;;;;;;;-5.29;100.00;102414.50;5073567;28;20468;-67
2021/12/22 05:05:57;;;;;;;58.03;35.28;;;;;;;-5.26;100.00;102404.47;5073099;28;20094;-66
2021/12/22 05:08:22;;;;;;;56.50;36.35;;;;;;;-5.26;100.00;102399.31;5072831;28;20025;-67
2021/12/22 05:10:48;;;;;;;58.03;36.58;;;;;;;-5.20;100.00;102401.53;5073309;28;20049;-67
2021/12/22 05:13:13;;;;;;;55.60;35.42;;;;;;;-5.26;100.00;102391.56;5073282;28;20037;-67
2021/12/22 05:15:39;;;;;;;56.67;35.20;;;;;;;-5.26;100.00;102389.91;5073394;28;20024;-67
2021/12/22 05:20:48;;;;;;;52.85;35.30;;;;;;;-5.21;100.00;102391.97;5069732;28;20028;-66
2021/12/22 05:23:13;;;;;;;59.63;35.55;;;;;;;-5.16;100.00;102396.81;5069105;28;20026;-67
2021/12/22 05:25:39;;;;;;;57.55;36.55;;;;;;;-5.19;100.00;102395.63;5071535;28;20119;-67
2021/12/22 05:28:04;;;;;;;57.65;35.10;;;;;;;-5.15;100.00;102397.72;5071624;28;20102;-66
2021/12/22 05:30:30;;;;;;;51.17;33.20;;;;;;;-5.19;100.00;102403.38;5072955;28;20501;-69
2021/12/22 05:32:55;;;;;;;51.72;33.22;;;;;;;-5.25;100.00;102402.03;5073139;28;20021;-66
2021/12/22 05:35:21;;;;;;;52.25;33.78;;;;;;;-5.32;100.00;102409.94;5073185;28;20044;-66
2021/12/22 05:37:47;;;;;;;56.88;34.33;;;;;;;-5.32;100.00;102402.22;5072853;28;20044;-67
2021/12/22 05:40:12;;;;;;;52.55;33.40;;;;;;;-5.28;100.00;102400.84;5068873;28;20078;-67
2021/12/22 05:42:38;;;;;;;52.88;33.90;;;;;;;-5.27;100.00;102385.50;5072721;28;20025;-66
2021/12/22 05:45:05;;;;;;;55.33;33.30;;;;;;;-5.36;100.00;102388.91;5072997;28;20029;-67
2021/12/22 05:47:30;;;;;;;50.85;32.15;;;;;;;-5.38;100.00;102381.03;5073161;28;20036;-67
2021/12/22 05:49:56;;;;;;;54.58;33.85;;;;;;;-5.37;100.00;102380.25;5072699;28;20028;-67
2021/12/22 05:52:22;;;;;;;52.08;33.08;;;;;;;-5.37;100.00;102382.84;5072970;28;20033;-67
2021/12/22 05:54:47;;;;;;;50.75;31.98;;;;;;;-5.37;100.00;102387.06;5072726;28;20044;-67
2021/12/22 05:57:13;;;;;;;55.45;32.80;;;;;;;-5.36;100.00;102382.06;5072735;28;20097;-70
2021/12/22 05:59:38;;;;;;;49.90;30.83;;;;;;;-5.31;100.00;102380.84;5073012;28;20131;-70
2021/12/22 06:02:03;;;;;;;48.95;30.40;;;;;;;-5.30;100.00;102376.56;5072410;28;20543;-69
2021/12/22 06:04:29;;;;;;;49.88;31.75;;;;;;;-5.32;100.00;102373.84;5072484;28;20043;-69
2021/12/22 06:06:54;;;;;;;49.75;31.90;;;;;;;-5.40;100.00;102368.75;5072724;28;20020;-70
2021/12/22 06:09:19;;;;;;;48.13;29.88;;;;;;;-5.45;100.00;102374.38;5072386;28;20365;-69
2021/12/22 06:11:45;;;;;;;47.05;30.30;;;;;;;-5.42;100.00;102386.66;5072374;28;20051;-70
2021/12/22 06:14:10;;;;;;;48.72;30.52;;;;;;;-5.43;100.00;102387.44;5072771;28;20107;-70
2021/12/22 06:16:35;;;;;;;50.83;30.40;;;;;;;-5.41;100.00;102392.72;5072439;28;20103;-70
2021/12/22 06:19:04;;;;;;;48.90;30.00;;;;;;;-5.38;100.00;102393.03;5071974;28;20029;-70
2021/12/22 06:21:31;;;;;;;48.53;30.10;;;;;;;-5.31;100.00;102386.00;5072715;28;20111;-69
2021/12/22 06:23:56;;;;;;;49.20;31.05;;;;;;;-5.38;100.00;102381.03;5072498;28;20032;-70
2021/12/22 06:26:23;;;;;;;48.40;31.15;;;;;;;-5.36;100.00;102396.63;5072037;28;20070;-69
2021/12/22 06:28:48;;;;;;;46.60;29.25;;;;;;;-5.41;100.00;102385.00;5070924;28;20115;-69
2021/12/22 06:31:13;;;;;;;52.17;31.77;;;;;;;-5.46;100.00;102382.91;5072560;28;20116;-72
2021/12/22 06:33:39;;;;;;;50.97;31.17;;;;;;;-5.43;100.00;102390.00;5072205;28;20075;-70
2021/12/22 06:36:05;;;;;;;46.60;29.70;;;;;;;-5.50;100.00;102382.47;5072394;28;20036;-70
2021/12/22 06:38:30;;;;;;;50.38;31.20;;;;;;;-5.52;100.00;102383.97;5072153;28;20090;-70
2021/12/22 06:40:56;;;;;;;48.42;30.08;;;;;;;-5.62;100.00;102383.13;5072236;28;20038;-70
2021/12/22 06:43:21;;;;;;;47.20;29.63;;;;;;;-5.65;100.00;102397.38;5072589;28;20062;-69
2021/12/22 06:45:47;;;;;;;46.78;29.83;;;;;;;-5.63;100.00;102394.19;5072048;28;20095;-70
2021/12/22 06:48:12;;;;;;;44.83;28.52;;;;;;;-5.66;100.00;102393.91;5072240;28;20034;-70
2021/12/22 06:50:37;;;;;;;45.90;28.70;;;;;;;-5.68;100.00;102391.94;5072327;28;20436;-71
2021/12/22 06:53:03;;;;;;;48.20;29.73;;;;;;;-5.66;100.00;102396.47;5072396;28;20025;-72
2021/12/22 06:55:28;;;;;;;46.38;29.65;;;;;;;-5.73;100.00;102404.38;5071026;28;20070;-69
2021/12/22 06:57:55;;;;;;;45.17;29.27;;;;;;;-5.76;100.00;102398.94;5068292;28;20089;-69
2021/12/22 07:00:21;;;;;;;46.80;29.88;;;;;;;-5.82;100.00;102398.38;5067816;28;20076;-68
2021/12/22 07:02:46;;;;;;;47.88;29.83;;;;;;;-5.82;100.00;102400.94;5069845;28;20056;-68
2021/12/22 07:05:12;;;;;;;49.03;30.05;;;;;;;-5.84;100.00;102410.19;5069687;28;20051;-70
2021/12/22 07:07:38;;;;;;;48.75;30.02;;;;;;;-5.82;100.00;102409.56;5069747;28;20375;-69
2021/12/22 07:10:07;;;;;;;50.15;30.63;;;;;;;-5.84;100.00;102399.88;5069575;28;20029;-69
2021/12/22 07:12:35;;;;;;;48.97;30.08;;;;;;;-5.83;100.00;102396.56;5069360;28;20111;-69
2021/12/22 07:15:03;;;;;;;46.88;29.45;;;;;;;-5.86;100.00;102396.25;5069540;28;20028;-69
2021/12/22 07:17:28;;;;;;;49.08;29.33;;;;;;;-5.89;100.00;102385.66;5069641;28;20046;-68
2021/12/22 07:19:53;;;;;;;49.72;29.92;;;;;;;-5.88;100.00;102392.63;5069168;28;20021;-67
2021/12/22 07:22:19;;;;;;;49.20;29.88;;;;;;;-5.90;100.00;102391.56;5069441;28;20032;-67
2021/12/22 07:24:44;;;;;;;51.45;31.75;;;;;;;-5.93;100.00;102383.56;5069544;28;20111;-68
2021/12/22 07:27:09;;;;;;;53.30;29.92;;;;;;;-5.94;100.00;102380.09;5069742;28;20021;-69
2021/12/22 07:29:35;;;;;;;47.13;29.80;;;;;;;-5.97;100.00;102393.56;5069076;28;20115;-68
2021/12/22 07:32:00;;;;;;;47.88;28.55;;;;;;;-5.97;100.00;102391.00;5071725;28;20021;-70
2021/12/22 07:34:47;;;;;;;47.97;28.95;;;;;;;-5.95;100.00;102394.63;5073141;28;20029;-68
2021/12/22 07:37:21;;;;;;;47.40;29.33;;;;;;;-5.95;100.00;102391.16;5073125;28;20030;-67
2021/12/22 07:39:47;;;;;;;47.30;29.10;;;;;;;-5.82;100.00;102394.13;5069249;28;20040;-68
2021/12/22 07:42:12;;;;;;;45.38;27.90;;;;;;;-5.88;100.00;102395.19;5073239;28;20029;-67
2021/12/22 07:44:37;;;;;;;47.55;29.05;;;;;;;-5.91;100.00;102387.19;5072352;28;20038;-69
2021/12/22 07:47:03;;;;;;;49.28;27.88;;;;;;;-5.93;100.00;102386.13;5072929;28;20158;-68
2021/12/22 07:49:28;;;;;;;49.97;27.65;;;;;;;-5.88;100.00;102387.47;5071372;28;20028;-67
2021/12/22 07:51:54;;;;;;;45.88;27.35;;;;;;;-5.85;100.00;102387.78;5072433;28;20384;-68
2021/12/22 07:54:19;;;;;;;48.20;28.40;;;;;;;-5.86;100.00;102381.69;5072395;28;20471;-68
2021/12/22 07:56:44;;;;;;;46.75;28.80;;;;;;;-5.82;100.00;102382.91;5072563;28;20058;-68
2021/12/22 07:59:10;;;;;;;46.47;28.48;;;;;;;-5.82;100.00;102388.97;5072456;28;20430;-66
2021/12/22 08:01:35;;;;;;;44.85;27.48;;;;;;;-5.79;100.00;102384.09;5071402;28;20036;-66
2021/12/22 08:04:01;;;;;;;44.88;27.45;;;;;;;-5.66;100.00;102381.03;5071902;28;20027;-68
2021/12/22 08:06:26;;;;;;;43.92;28.10;;;;;;;-5.61;100.00;102384.94;5071797;28;20040;-70
2021/12/22 08:08:51;;;;;;;44.80;27.25;;;;;;;-5.53;100.00;102383.09;5072191;28;20024;-69
2021/12/22 08:11:17;;;;;;;45.72;28.77;;;;;;;-5.50;100.00;102383.38;5069923;28;20056;-70
2021/12/22 08:13:42;;;;;;;47.33;28.90;;;;;;;-5.39;100.00;102379.19;5072208;28;20551;-70
2021/12/22 08:16:08;;;;;;;50.50;29.25;;;;;;;-5.26;100.00;102373.50;5071654;28;20081;-70
2021/12/22 08:18:33;;;;;;;47.83;28.55;;;;;;;-5.20;100.00;102376.66;5071380;28;20031;-70
2021/12/22 08:20:59;;;;;;;44.95;27.85;;;;;;;-5.15;100.00;102378.00;5071412;28;20520;-66
2021/12/22 08:23:24;;;;;;;42.45;26.70;;;;;;;-4.96;100.00;102379.69;5072068;28;20017;-69
2021/12/22 08:25:50;;;;;;;44.00;27.55;;;;;;;-4.83;100.00;102377.47;5071789;28;20042;-69
2021/12/22 08:28:16;;;;;;;42.17;26.13;;;;;;;-4.59;100.00;102376.19;5072213;28;20079;-69
2021/12/22 08:30:42;;;;;;;41.80;25.10;;;;;;;-4.41;100.00;102383.78;5070896;28;20491;-69
2021/12/22 08:33:15;;;;;;;44.13;25.52;;;;;;;-4.37;100.00;102378.09;5071423;28;20035;-70
2021/12/22 08:41:21;;;;;;;43.05;26.85;;;;;;;-4.05;100.00;102378.38;5030370;28;20080;-69
2021/12/22 08:43:47;;;;;;;41.17;25.85;;;;;;;-3.80;100.00;102372.78;5030881;28;20542;-70
2021/12/22 08:46:13;;;;;;;40.63;25.63;;;;;;;-3.62;100.00;102369.97;5032912;28;20049;-71
2021/12/22 08:48:38;;;;;;;41.53;25.80;;;;;;;-3.56;100.00;102373.06;5035369;28;20025;-70
2021/12/22 08:51:03;;;;;;;41.40;24.83;;;;;;;-3.41;100.00;102369.19;5029450;28;20116;-70
2021/12/22 08:53:29;;;;;;;39.55;25.05;;;;;;;-3.23;100.00;102369.84;5031524;28;20036;-66
2021/12/22 08:55:54;;;;;;;38.95;24.35;;;;;;;-3.16;100.00;102374.78;5031351;28;20499;-67
2021/12/22 08:58:19;;;;;;;40.13;24.35;;;;;;;-3.00;100.00;102382.16;5031455;28;20053;-69
2021/12/22 09:00:45;;;;;;;37.72;24.63;;;;;;;-2.86;100.00;102378.09;5031409;28;20485;-67
2021/12/22 09:03:10;;;;;;;39.30;25.25;;;;;;;-2.83;100.00;102380.94;5025575;28;20049;-66
2021/12/22 09:05:36;;;;;;;39.70;24.13;;;;;;;-2.67;100.00;102374.47;5021349;28;20100;-70
2021/12/22 09:08:01;;;;;;;39.35;24.00;;;;;;;-2.53;100.00;102376.50;5021965;28;20577;-72
2021/12/22 09:10:26;;;;;;;40.65;24.13;;;;;;;-2.41;100.00;102373.09;5019980;28;20081;-70
2021/12/22 09:12:52;;;;;;;37.85;23.92;;;;;;;-2.31;100.00;102370.47;5023396;28;20034;-70
2021/12/22 09:15:17;;;;;;;37.13;23.10;;;;;;;-2.22;100.00;102376.38;5019818;28;20034;-69
2021/12/22 09:17:44;;;;;;;37.90;23.42;;;;;;;-2.28;100.00;102373.31;5043974;28;20087;-66
2021/12/22 09:20:10;;;;;;;39.17;23.15;;;;;;;-2.17;100.00;102369.91;5073570;28;20094;-69
2021/12/22 09:22:35;;;;;;;37.13;22.63;;;;;;;-2.15;100.00;102370.91;5073196;28;20028;-70
2021/12/22 09:25:01;;;;;;;35.40;21.95;;;;;;;-2.16;100.00;102374.28;5105965;28;20146;-69
2021/12/22 09:27:26;;;;;;;36.80;23.80;;;;;;;-2.22;100.00;102373.78;5073079;28;20017;-70
2021/12/22 09:29:51;;;;;;;36.85;22.60;;;;;;;-2.06;100.00;102373.34;5073144;28;20033;-70
2021/12/22 09:32:18;;;;;;;36.92;22.83;;;;;;;-1.84;100.00;102373.34;5073469;28;20025;-69
2021/12/22 09:34:45;;;;;;;34.30;21.85;;;;;;;-1.68;100.00;102377.16;5072815;28;20463;-69
2021/12/22 09:37:10;;;;;;;38.83;22.30;;;;;;;-1.64;100.00;102366.25;5072736;28;20032;-66
2021/12/22 09:39:36;;;;;;;36.55;22.40;;;;;;;-1.58;100.00;102365.03;5073297;28;20444;-68
2021/12/22 09:42:02;;;;;;;36.65;22.35;;;;;;;-1.43;100.00;102367.91;5072760;28;20032;-68
2021/12/22 09:44:32;;;;;;;35.88;21.40;;;;;;;-1.12;100.00;102365.06;5072904;28;20021;-70
2021/12/22 09:46:58;;;;;;;34.92;21.33;;;;;;;-0.81;100.00;102364.78;5072913;28;20106;-70
2021/12/22 09:52:26;;;;;;;35.05;21.20;;;;;;;-0.72;100.00;102357.66;5050244;28;20029;-71
2021/12/22 09:54:55;;;;;;;34.13;21.67;;;;;;;-0.53;100.00;102359.91;5050618;28;20131;-65
2021/12/22 09:57:22;;;;;;;34.67;21.00;;;;;;;-0.38;100.00;102357.56;5050457;28;20029;-69
2021/12/22 09:59:49;;;;;;;34.55;21.55;;;;;;;-0.41;100.00;102361.63;5050743;28;20072;-69
2021/12/22 10:02:17;;;;;;;35.47;21.50;;;;;;;-0.37;100.00;102367.16;5050527;28;20037;-69
2021/12/22 10:04:43;;;;;;;37.30;21.15;;;;;;;-0.33;100.00;102370.00;5050047;28;20555;-68
2021/12/22 10:07:16;;;;;;;34.22;20.77;;;;;;;-0.28;100.00;102364.31;5050571;28;20028;-66
2021/12/22 10:09:45;;;;;;;36.10;20.95;;;;;;;-0.20;100.00;102357.09;5046577;28;20488;-69
2021/12/22 10:12:20;;;;;;;33.60;19.90;;;;;;;0.03;100.00;102355.22;5047738;28;20143;-68
2021/12/22 10:15:00;;;;;;;35.17;21.10;;;;;;;0.11;100.00;102351.47;5047591;28;20033;-66
2021/12/22 10:17:44;;;;;;;33.90;20.33;;;;;;;0.21;100.00;102353.94;5047394;28;20500;-66
2021/12/22 10:20:20;;;;;;;33.42;19.88;;;;;;;0.08;99.34;102344.34;5047456;28;20036;-69
2021/12/22 10:22:49;;;;;;;34.67;20.73;;;;;;;0.09;99.92;102345.28;5047990;28;20472;-70
2021/12/22 10:25:23;;;;;;;34.42;20.75;;;;;;;-0.14;100.00;102341.03;5048047;28;20123;-70
2021/12/22 10:28:16;;;;;;;33.08;19.85;;;;;;;-0.05;100.00;102347.78;5055204;28;20029;-69
2021/12/22 10:30:42;;;;;;;32.88;20.20;;;;;;;0.00;100.00;102342.94;5067478;28;20103;-69
2021/12/22 10:33:17;;;;;;;33.05;20.60;;;;;;;0.19;99.80;102346.81;5070010;28;20467;-67
2021/12/22 10:35:46;;;;;;;31.52;19.65;;;;;;;0.57;99.42;102346.91;5067541;28;20028;-68
2021/12/22 10:38:14;;;;;;;34.50;19.85;;;;;;;1.34;97.49;102339.03;5069571;28;20036;-70
2021/12/22 10:40:42;;;;;;;33.03;19.05;;;;;;;1.95;91.57;102333.34;5069765;28;20085;-69
2021/12/22 10:43:16;;;;;;;29.63;17.95;;;;;;;2.84;87.62;102327.47;5069994;28;20021;-71
2021/12/22 10:45:44;;;;;;;31.85;16.98;;;;;;;3.81;80.58;102324.28;5066241;28;20058;-67
2021/12/22 10:50:58;;;;;;;27.75;16.00;;;;;;;5.07;71.25;102314.31;5067725;28;20509;-71
2021/12/22 10:53:24;;;;;;;30.92;15.95;;;;;;;4.94;70.77;102319.78;5068161;28;20460;-71
2021/12/22 10:55:54;;;;;;;29.90;16.88;;;;;;;4.41;72.04;102313.53;5067516;28;20467;-70
2021/12/22 10:58:22;;;;;;;30.30;16.35;;;;;;;4.47;72.12;102301.66;5067484;28;20028;-70
2021/12/22 11:01:08;;;;;;;28.67;15.65;;;;;;;5.21;73.31;102296.66;5065365;28;20037;-71
2021/12/22 11:03:46;;;;;;;30.30;17.25;;;;;;;4.74;71.29;102298.69;5067044;28;20522;-72
2021/12/22 11:06:27;;;;;;;31.77;17.15;;;;;;;5.04;71.15;102298.44;5072476;28;20521;-74
2021/12/22 11:09:10;;;;;;;32.10;16.60;;;;;;;5.27;70.58;102288.19;5071204;28;20049;-73
2021/12/22 11:11:38;;;;;;;29.58;17.63;;;;;;;5.48;69.10;102297.09;5072388;28;20049;-74
2021/12/22 11:14:16;;;;;;;29.88;16.63;;;;;;;6.49;66.56;102296.50;5073425;28;20025;-73
2021/12/22 11:17:00;;;;;;;30.35;16.33;;;;;;;7.25;66.78;102287.44;5072318;28;20537;-73
2021/12/22 11:19:35;;;;;;;30.10;16.05;;;;;;;7.37;60.28;102287.97;5070704;28;20054;-69
2021/12/22 11:24:41;;;;;;;29.40;15.75;;;;;;;7.60;59.46;102293.22;5072983;28;20059;-70
2021/12/22 11:27:08;;;;;;;27.37;15.90;;;;;;;7.59;59.03;102292.34;5071766;28;20029;-71
2021/12/22 11:29:36;;;;;;;32.63;15.43;;;;;;;7.61;57.60;102285.38;5072618;28;20035;-68
2021/12/22 11:32:04;;;;;;;28.17;16.13;;;;;;;7.34;58.12;102277.31;5075230;28;20537;-73